sensor_id;sensor_type;location;lat;lon;timestamp;P1;durP1;ratioP1;P2;durP2;ratioP2
70953;SDS011;58618;47.490;8.736;2023-11-22T00:01:56;5.00;;;2.90;;
70953;SDS011;58618;47.490;8.736;2023-11-22T00:04:43;6.22;;;2.88;;
70953;SDS011;58618;47.490;8.736;2023-11-22T00:07:31;5.47;;;3.20;;
70953;SDS011;58618;47.490;8.736;2023-11-22T00:10:18;5.70;;;2.88;;
70953;SDS011;58618;47.490;8.736;2023-11-22T00:13:06;4.68;;;2.90;;
70953;SDS011;58618;47.490;8.736;2023-11-22T00:15:53;5.22;;;2.95;;
70953;SDS011;58618;47.490;8.736;2023-11-22T00:18:42;6.47;;;3.05;;
70953;SDS011;58618;47.490;8.736;2023-11-22T00:21:29;6.10;;;2.57;;
70953;SDS011;58618;47.490;8.736;2023-11-22T00:24:16;4.57;;;2.75;;
70953;SDS011;58618;47.490;8.736;2023-11-22T00:27:04;4.65;;;3.03;;
70953;SDS011;58618;47.490;8.736;2023-11-22T00:29:52;7.10;;;3.30;;
70953;SDS011;58618;47.490;8.736;2023-11-22T00:32:39;5.35;;;3.15;;
70953;SDS011;58618;47.490;8.736;2023-11-22T00:35:28;6.13;;;3.20;;
70953;SDS011;58618;47.490;8.736;2023-11-22T00:38:16;6.78;;;3.47;;
70953;SDS011;58618;47.490;8.736;2023-11-22T00:41:03;9.15;;;3.65;;
70953;SDS011;58618;47.490;8.736;2023-11-22T00:43:51;5.70;;;3.75;;
70953;SDS011;58618;47.490;8.736;2023-11-22T00:46:38;5.88;;;4.30;;
70953;SDS011;58618;47.490;8.736;2023-11-22T00:49:25;9.37;;;4.23;;
70953;SDS011;58618;47.490;8.736;2023-11-22T00:52:14;9.10;;;4.53;;
70953;SDS011;58618;47.490;8.736;2023-11-22T00:55:02;10.80;;;4.80;;
70953;SDS011;58618;47.490;8.736;2023-11-22T00:57:49;7.75;;;4.35;;
70953;SDS011;58618;47.490;8.736;2023-11-22T01:00:37;6.72;;;4.45;;
70953;SDS011;58618;47.490;8.736;2023-11-22T01:03:24;8.80;;;4.37;;
70953;SDS011;58618;47.490;8.736;2023-11-22T01:06:12;9.68;;;4.75;;
70953;SDS011;58618;47.490;8.736;2023-11-22T01:09:01;10.73;;;4.75;;
70953;SDS011;58618;47.490;8.736;2023-11-22T01:11:48;9.13;;;4.47;;
70953;SDS011;58618;47.490;8.736;2023-11-22T01:14:35;7.60;;;4.88;;
70953;SDS011;58618;47.490;8.736;2023-11-22T01:17:23;9.97;;;4.67;;
70953;SDS011;58618;47.490;8.736;2023-11-22T01:20:10;7.55;;;4.15;;
70953;SDS011;58618;47.490;8.736;2023-11-22T01:23:00;9.25;;;4.97;;
70953;SDS011;58618;47.490;8.736;2023-11-22T01:25:49;9.48;;;5.07;;
70953;SDS011;58618;47.490;8.736;2023-11-22T01:28:37;14.38;;;4.68;;
70953;SDS011;58618;47.490;8.736;2023-11-22T01:31:29;8.27;;;4.70;;
70953;SDS011;58618;47.490;8.736;2023-11-22T01:34:18;11.40;;;5.07;;
70953;SDS011;58618;47.490;8.736;2023-11-22T01:37:05;8.45;;;4.93;;
70953;SDS011;58618;47.490;8.736;2023-11-22T01:39:53;8.02;;;4.50;;
70953;SDS011;58618;47.490;8.736;2023-11-22T01:42:41;12.40;;;4.93;;
70953;SDS011;58618;47.490;8.736;2023-11-22T01:45:29;11.17;;;5.27;;
70953;SDS011;58618;47.490;8.736;2023-11-22T01:48:16;10.93;;;5.05;;
70953;SDS011;58618;47.490;8.736;2023-11-22T01:51:04;9.30;;;4.72;;
70953;SDS011;58618;47.490;8.736;2023-11-22T01:53:55;9.82;;;5.10;;
70953;SDS011;58618;47.490;8.736;2023-11-22T01:56:44;9.05;;;5.07;;
70953;SDS011;58618;47.490;8.736;2023-11-22T01:59:34;8.67;;;5.57;;
70953;SDS011;58618;47.490;8.736;2023-11-22T02:02:22;12.40;;;5.70;;
70953;SDS011;58618;47.490;8.736;2023-11-22T02:05:09;8.23;;;5.07;;
70953;SDS011;58618;47.490;8.736;2023-11-22T02:07:57;8.52;;;4.85;;
70953;SDS011;58618;47.490;8.736;2023-11-22T02:10:45;9.85;;;5.65;;
70953;SDS011;58618;47.490;8.736;2023-11-22T02:13:35;12.07;;;5.50;;
70953;SDS011;58618;47.490;8.736;2023-11-22T02:16:23;9.90;;;5.30;;
70953;SDS011;58618;47.490;8.736;2023-11-22T02:19:14;11.18;;;5.03;;
70953;SDS011;58618;47.490;8.736;2023-11-22T02:22:03;12.07;;;5.35;;
70953;SDS011;58618;47.490;8.736;2023-11-22T02:24:52;11.27;;;5.72;;
70953;SDS011;58618;47.490;8.736;2023-11-22T02:27:39;9.60;;;5.20;;
70953;SDS011;58618;47.490;8.736;2023-11-22T02:30:26;9.75;;;5.57;;
70953;SDS011;58618;47.490;8.736;2023-11-22T02:33:14;10.52;;;5.43;;
70953;SDS011;58618;47.490;8.736;2023-11-22T02:36:01;11.25;;;5.47;;
70953;SDS011;58618;47.490;8.736;2023-11-22T02:38:48;8.48;;;5.18;;
70953;SDS011;58618;47.490;8.736;2023-11-22T02:41:38;8.93;;;4.90;;
70953;SDS011;58618;47.490;8.736;2023-11-22T02:44:25;9.73;;;5.13;;
70953;SDS011;58618;47.490;8.736;2023-11-22T02:47:13;10.20;;;5.00;;
70953;SDS011;58618;47.490;8.736;2023-11-22T02:50:01;10.35;;;4.40;;
70953;SDS011;58618;47.490;8.736;2023-11-22T02:52:51;10.32;;;5.05;;
70953;SDS011;58618;47.490;8.736;2023-11-22T02:55:38;9.83;;;4.93;;
70953;SDS011;58618;47.490;8.736;2023-11-22T02:58:27;8.23;;;4.43;;
70953;SDS011;58618;47.490;8.736;2023-11-22T03:01:15;11.05;;;5.25;;
70953;SDS011;58618;47.490;8.736;2023-11-22T03:04:03;10.27;;;4.93;;
70953;SDS011;58618;47.490;8.736;2023-11-22T03:06:51;10.05;;;4.75;;
70953;SDS011;58618;47.490;8.736;2023-11-22T03:09:38;9.27;;;4.70;;
70953;SDS011;58618;47.490;8.736;2023-11-22T03:12:27;7.80;;;4.57;;
70953;SDS011;58618;47.490;8.736;2023-11-22T03:15:33;10.48;;;4.95;;
70953;SDS011;58618;47.490;8.736;2023-11-22T03:18:20;8.32;;;4.70;;
70953;SDS011;58618;47.490;8.736;2023-11-22T03:21:08;8.85;;;5.20;;
70953;SDS011;58618;47.490;8.736;2023-11-22T03:23:56;8.80;;;5.23;;
70953;SDS011;58618;47.490;8.736;2023-11-22T03:26:46;10.98;;;4.72;;
70953;SDS011;58618;47.490;8.736;2023-11-22T03:29:33;7.90;;;5.15;;
70953;SDS011;58618;47.490;8.736;2023-11-22T03:32:22;9.98;;;4.57;;
70953;SDS011;58618;47.490;8.736;2023-11-22T03:35:09;9.70;;;4.93;;
70953;SDS011;58618;47.490;8.736;2023-11-22T03:37:58;10.73;;;4.90;;
70953;SDS011;58618;47.490;8.736;2023-11-22T03:40:45;9.90;;;4.65;;
70953;SDS011;58618;47.490;8.736;2023-11-22T03:43:33;11.18;;;5.03;;
70953;SDS011;58618;47.490;8.736;2023-11-22T03:46:21;10.90;;;5.30;;
70953;SDS011;58618;47.490;8.736;2023-11-22T03:49:09;10.38;;;5.15;;
70953;SDS011;58618;47.490;8.736;2023-11-22T03:51:57;10.97;;;5.50;;
70953;SDS011;58618;47.490;8.736;2023-11-22T03:54:44;9.70;;;4.78;;
70953;SDS011;58618;47.490;8.736;2023-11-22T03:57:31;10.82;;;5.75;;
70953;SDS011;58618;47.490;8.736;2023-11-22T04:00:19;8.27;;;4.80;;
70953;SDS011;58618;47.490;8.736;2023-11-22T04:03:06;10.90;;;5.07;;
70953;SDS011;58618;47.490;8.736;2023-11-22T04:05:55;8.53;;;5.00;;
70953;SDS011;58618;47.490;8.736;2023-11-22T04:08:42;10.07;;;4.68;;
70953;SDS011;58618;47.490;8.736;2023-11-22T04:11:31;8.98;;;4.68;;
70953;SDS011;58618;47.490;8.736;2023-11-22T04:14:18;12.20;;;5.38;;
70953;SDS011;58618;47.490;8.736;2023-11-22T04:17:07;9.73;;;5.25;;
70953;SDS011;58618;47.490;8.736;2023-11-22T04:19:54;10.40;;;5.33;;
70953;SDS011;58618;47.490;8.736;2023-11-22T04:22:44;11.07;;;5.10;;
70953;SDS011;58618;47.490;8.736;2023-11-22T04:25:32;10.77;;;5.45;;
70953;SDS011;58618;47.490;8.736;2023-11-22T04:28:21;11.38;;;5.55;;
70953;SDS011;58618;47.490;8.736;2023-11-22T04:31:08;10.60;;;5.10;;
70953;SDS011;58618;47.490;8.736;2023-11-22T04:33:55;12.17;;;5.73;;
70953;SDS011;58618;47.490;8.736;2023-11-22T04:36:43;11.68;;;5.55;;
70953;SDS011;58618;47.490;8.736;2023-11-22T04:39:33;11.88;;;5.38;;
70953;SDS011;58618;47.490;8.736;2023-11-22T04:42:21;10.23;;;5.50;;
70953;SDS011;58618;47.490;8.736;2023-11-22T04:45:09;9.85;;;5.60;;
70953;SDS011;58618;47.490;8.736;2023-11-22T04:47:56;11.77;;;5.70;;
70953;SDS011;58618;47.490;8.736;2023-11-22T04:50:44;10.48;;;5.18;;
70953;SDS011;58618;47.490;8.736;2023-11-22T04:53:31;10.02;;;4.90;;
70953;SDS011;58618;47.490;8.736;2023-11-22T04:56:20;11.63;;;5.03;;
70953;SDS011;58618;47.490;8.736;2023-11-22T04:59:08;12.55;;;5.30;;
70953;SDS011;58618;47.490;8.736;2023-11-22T05:01:55;9.77;;;4.90;;
70953;SDS011;58618;47.490;8.736;2023-11-22T05:04:43;8.05;;;4.85;;
70953;SDS011;58618;47.490;8.736;2023-11-22T05:07:33;14.07;;;5.32;;
70953;SDS011;58618;47.490;8.736;2023-11-22T05:46:38;10.18;;;4.20;;
70953;SDS011;58618;47.490;8.736;2023-11-22T05:49:31;8.00;;;3.90;;
70953;SDS011;58618;47.490;8.736;2023-11-22T05:52:44;8.27;;;4.07;;
70953;SDS011;58618;47.490;8.736;2023-11-22T05:55:51;9.77;;;4.33;;
70953;SDS011;58618;47.490;8.736;2023-11-22T05:58:45;7.22;;;3.80;;
70953;SDS011;58618;47.490;8.736;2023-11-22T06:01:33;9.15;;;4.72;;
70953;SDS011;58618;47.490;8.736;2023-11-22T06:04:47;9.32;;;4.35;;
70953;SDS011;58618;47.490;8.736;2023-11-22T06:07:34;9.50;;;4.45;;
70953;SDS011;58618;47.490;8.736;2023-11-22T06:10:22;9.17;;;5.27;;
70953;SDS011;58618;47.490;8.736;2023-11-22T06:13:10;8.25;;;4.75;;
70953;SDS011;58618;47.490;8.736;2023-11-22T06:23:39;8.33;;;4.37;;
70953;SDS011;58618;47.490;8.736;2023-11-22T06:28:56;8.57;;;4.68;;
70953;SDS011;58618;47.490;8.736;2023-11-22T06:31:43;8.55;;;4.35;;
70953;SDS011;58618;47.490;8.736;2023-11-22T06:34:31;7.93;;;4.32;;
70953;SDS011;58618;47.490;8.736;2023-11-22T06:37:19;6.80;;;3.90;;
70953;SDS011;58618;47.490;8.736;2023-11-22T06:40:08;6.53;;;3.90;;
70953;SDS011;58618;47.490;8.736;2023-11-22T06:42:58;8.50;;;4.07;;
70953;SDS011;58618;47.490;8.736;2023-11-22T06:45:45;6.40;;;3.53;;
70953;SDS011;58618;47.490;8.736;2023-11-22T06:48:33;6.35;;;3.00;;
70953;SDS011;58618;47.490;8.736;2023-11-22T06:51:20;4.83;;;2.70;;
70953;SDS011;58618;47.490;8.736;2023-11-22T06:54:08;3.15;;;2.00;;
70953;SDS011;58618;47.490;8.736;2023-11-22T06:56:58;3.00;;;1.77;;
70953;SDS011;58618;47.490;8.736;2023-11-22T06:59:45;2.35;;;1.58;;
70953;SDS011;58618;47.490;8.736;2023-11-22T07:02:32;3.55;;;1.58;;
70953;SDS011;58618;47.490;8.736;2023-11-22T07:05:20;2.00;;;1.43;;
70953;SDS011;58618;47.490;8.736;2023-11-22T07:08:08;2.88;;;1.80;;
70953;SDS011;58618;47.490;8.736;2023-11-22T07:10:56;2.35;;;1.42;;
70953;SDS011;58618;47.490;8.736;2023-11-22T07:13:45;2.80;;;1.50;;
70953;SDS011;58618;47.490;8.736;2023-11-22T07:16:33;3.05;;;2.00;;
70953;SDS011;58618;47.490;8.736;2023-11-22T07:19:21;2.77;;;1.80;;
70953;SDS011;58618;47.490;8.736;2023-11-22T07:22:09;3.00;;;1.77;;
70953;SDS011;58618;47.490;8.736;2023-11-22T07:25:01;3.78;;;2.53;;
70953;SDS011;58618;47.490;8.736;2023-11-22T07:27:50;3.08;;;2.30;;
70953;SDS011;58618;47.490;8.736;2023-11-22T07:30:40;3.80;;;2.42;;
70953;SDS011;58618;47.490;8.736;2023-11-22T07:33:28;4.00;;;2.20;;
70953;SDS011;58618;47.490;8.736;2023-11-22T07:36:16;3.20;;;2.17;;
70953;SDS011;58618;47.490;8.736;2023-11-22T07:39:03;3.67;;;2.30;;
70953;SDS011;58618;47.490;8.736;2023-11-22T07:41:51;3.63;;;2.20;;
70953;SDS011;58618;47.490;8.736;2023-11-22T07:44:38;4.38;;;2.65;;
70953;SDS011;58618;47.490;8.736;2023-11-22T07:47:29;3.83;;;2.50;;
70953;SDS011;58618;47.490;8.736;2023-11-22T07:50:17;4.25;;;2.35;;
70953;SDS011;58618;47.490;8.736;2023-11-22T07:53:05;4.70;;;2.38;;
70953;SDS011;58618;47.490;8.736;2023-11-22T07:55:54;5.60;;;2.50;;
70953;SDS011;58618;47.490;8.736;2023-11-22T07:58:43;3.90;;;2.50;;
70953;SDS011;58618;47.490;8.736;2023-11-22T08:01:30;4.67;;;2.23;;
70953;SDS011;58618;47.490;8.736;2023-11-22T08:04:19;3.40;;;2.17;;
70953;SDS011;58618;47.490;8.736;2023-11-22T08:07:07;3.75;;;2.30;;
70953;SDS011;58618;47.490;8.736;2023-11-22T08:09:57;4.00;;;2.60;;
70953;SDS011;58618;47.490;8.736;2023-11-22T08:12:55;4.05;;;2.55;;
70953;SDS011;58618;47.490;8.736;2023-11-22T08:15:43;3.93;;;2.20;;
70953;SDS011;58618;47.490;8.736;2023-11-22T08:18:32;3.20;;;1.98;;
70953;SDS011;58618;47.490;8.736;2023-11-22T08:21:21;4.00;;;2.42;;
70953;SDS011;58618;47.490;8.736;2023-11-22T08:24:09;3.78;;;2.50;;
70953;SDS011;58618;47.490;8.736;2023-11-22T08:26:58;3.65;;;2.10;;
70953;SDS011;58618;47.490;8.736;2023-11-22T08:29:46;3.90;;;2.10;;
70953;SDS011;58618;47.490;8.736;2023-11-22T08:32:34;3.83;;;2.00;;
70953;SDS011;58618;47.490;8.736;2023-11-22T08:35:22;5.72;;;2.10;;
70953;SDS011;58618;47.490;8.736;2023-11-22T08:38:11;3.30;;;1.77;;
70953;SDS011;58618;47.490;8.736;2023-11-22T08:41:00;3.00;;;1.90;;
70953;SDS011;58618;47.490;8.736;2023-11-22T08:43:49;3.03;;;1.77;;
70953;SDS011;58618;47.490;8.736;2023-11-22T08:46:36;3.15;;;1.70;;
70953;SDS011;58618;47.490;8.736;2023-11-22T08:49:23;4.28;;;1.70;;
70953;SDS011;58618;47.490;8.736;2023-11-22T08:52:11;3.00;;;1.60;;
70953;SDS011;58618;47.490;8.736;2023-11-22T08:55:00;2.88;;;1.70;;
70953;SDS011;58618;47.490;8.736;2023-11-22T08:57:48;2.13;;;1.47;;
70953;SDS011;58618;47.490;8.736;2023-11-22T09:00:36;3.83;;;1.80;;
70953;SDS011;58618;47.490;8.736;2023-11-22T09:03:24;2.42;;;1.73;;
70953;SDS011;58618;47.490;8.736;2023-11-22T09:06:12;2.92;;;1.60;;
70953;SDS011;58618;47.490;8.736;2023-11-22T09:09:00;3.70;;;1.65;;
70953;SDS011;58618;47.490;8.736;2023-11-22T09:11:49;3.03;;;1.80;;
70953;SDS011;58618;47.490;8.736;2023-11-22T09:14:36;3.08;;;1.60;;
70953;SDS011;58618;47.490;8.736;2023-11-22T09:17:24;4.20;;;1.90;;
70953;SDS011;58618;47.490;8.736;2023-11-22T09:20:11;3.00;;;1.83;;
70953;SDS011;58618;47.490;8.736;2023-11-22T09:23:00;3.25;;;1.83;;
70953;SDS011;58618;47.490;8.736;2023-11-22T09:25:50;2.67;;;1.50;;
70953;SDS011;58618;47.490;8.736;2023-11-22T09:28:40;2.83;;;1.60;;
70953;SDS011;58618;47.490;8.736;2023-11-22T09:31:27;4.68;;;1.60;;
70953;SDS011;58618;47.490;8.736;2023-11-22T09:34:14;2.35;;;1.60;;
70953;SDS011;58618;47.490;8.736;2023-11-22T09:37:02;2.50;;;1.70;;
70953;SDS011;58618;47.490;8.736;2023-11-22T09:39:49;2.03;;;1.50;;
70953;SDS011;58618;47.490;8.736;2023-11-22T09:42:38;3.13;;;1.45;;
70953;SDS011;58618;47.490;8.736;2023-11-22T09:45:28;2.50;;;1.50;;
70953;SDS011;58618;47.490;8.736;2023-11-22T09:48:18;2.40;;;1.70;;
70953;SDS011;58618;47.490;8.736;2023-11-22T09:51:09;2.58;;;1.80;;
70953;SDS011;58618;47.490;8.736;2023-11-22T09:54:03;3.77;;;2.00;;
70953;SDS011;58618;47.490;8.736;2023-11-22T09:56:53;3.03;;;1.88;;
70953;SDS011;58618;47.490;8.736;2023-11-22T09:59:41;3.67;;;2.00;;
70953;SDS011;58618;47.490;8.736;2023-11-22T10:02:29;4.10;;;1.60;;
70953;SDS011;58618;47.490;8.736;2023-11-22T10:05:17;3.42;;;1.60;;
70953;SDS011;58618;47.490;8.736;2023-11-22T10:08:05;2.33;;;1.60;;
70953;SDS011;58618;47.490;8.736;2023-11-22T10:10:55;3.00;;;1.38;;
70953;SDS011;58618;47.490;8.736;2023-11-22T10:13:43;2.60;;;1.58;;
70953;SDS011;58618;47.490;8.736;2023-11-22T10:16:31;2.58;;;1.50;;
70953;SDS011;58618;47.490;8.736;2023-11-22T10:19:20;2.50;;;1.70;;
70953;SDS011;58618;47.490;8.736;2023-11-22T10:22:08;3.23;;;1.70;;
70953;SDS011;58618;47.490;8.736;2023-11-22T10:24:58;2.20;;;1.48;;
70953;SDS011;58618;47.490;8.736;2023-11-22T10:27:46;3.60;;;1.60;;
70953;SDS011;58618;47.490;8.736;2023-11-22T10:30:37;2.92;;;1.95;;
70953;SDS011;58618;47.490;8.736;2023-11-22T10:33:26;2.53;;;1.70;;
70953;SDS011;58618;47.490;8.736;2023-11-22T10:36:15;3.03;;;1.50;;
70953;SDS011;58618;47.490;8.736;2023-11-22T10:39:03;2.40;;;1.50;;
70953;SDS011;58618;47.490;8.736;2023-11-22T10:41:55;3.50;;;1.90;;
70953;SDS011;58618;47.490;8.736;2023-11-22T10:44:44;3.67;;;1.88;;
70953;SDS011;58618;47.490;8.736;2023-11-22T10:47:33;2.75;;;1.60;;
70953;SDS011;58618;47.490;8.736;2023-11-22T10:50:23;4.47;;;1.80;;
70953;SDS011;58618;47.490;8.736;2023-11-22T10:53:15;2.85;;;1.70;;
70953;SDS011;58618;47.490;8.736;2023-11-22T10:56:12;2.63;;;1.70;;
70953;SDS011;58618;47.490;8.736;2023-11-22T10:59:04;3.58;;;1.70;;
70953;SDS011;58618;47.490;8.736;2023-11-22T11:01:56;3.42;;;1.60;;
70953;SDS011;58618;47.490;8.736;2023-11-22T11:04:51;2.27;;;1.53;;
70953;SDS011;58618;47.490;8.736;2023-11-22T11:07:48;2.95;;;1.48;;
70953;SDS011;58618;47.490;8.736;2023-11-22T11:10:41;2.38;;;1.70;;
70953;SDS011;58618;47.490;8.736;2023-11-22T11:13:29;3.65;;;1.60;;
70953;SDS011;58618;47.490;8.736;2023-11-22T11:16:16;3.95;;;1.80;;
70953;SDS011;58618;47.490;8.736;2023-11-22T11:19:04;2.93;;;1.60;;
70953;SDS011;58618;47.490;8.736;2023-11-22T11:21:54;4.07;;;1.50;;
70953;SDS011;58618;47.490;8.736;2023-11-22T11:24:43;2.50;;;1.75;;
70953;SDS011;58618;47.490;8.736;2023-11-22T11:27:36;3.75;;;2.00;;
70953;SDS011;58618;47.490;8.736;2023-11-22T11:30:43;2.33;;;1.50;;
70953;SDS011;58618;47.490;8.736;2023-11-22T11:33:32;2.80;;;1.50;;
70953;SDS011;58618;47.490;8.736;2023-11-22T11:36:21;2.70;;;1.65;;
70953;SDS011;58618;47.490;8.736;2023-11-22T11:39:12;2.92;;;1.70;;
70953;SDS011;58618;47.490;8.736;2023-11-22T11:42:07;3.30;;;1.70;;
70953;SDS011;58618;47.490;8.736;2023-11-22T11:45:05;3.10;;;1.70;;
70953;SDS011;58618;47.490;8.736;2023-11-22T11:47:53;2.67;;;1.70;;
70953;SDS011;58618;47.490;8.736;2023-11-22T11:50:43;3.33;;;1.88;;
70953;SDS011;58618;47.490;8.736;2023-11-22T11:53:33;3.60;;;1.98;;
70953;SDS011;58618;47.490;8.736;2023-11-22T11:56:20;3.47;;;2.13;;
70953;SDS011;58618;47.490;8.736;2023-11-22T11:59:08;3.83;;;2.00;;
70953;SDS011;58618;47.490;8.736;2023-11-22T12:01:59;2.67;;;1.83;;
70953;SDS011;58618;47.490;8.736;2023-11-22T12:04:46;3.90;;;2.30;;
70953;SDS011;58618;47.490;8.736;2023-11-22T12:07:34;3.60;;;2.30;;
70953;SDS011;58618;47.490;8.736;2023-11-22T12:10:22;3.50;;;2.30;;
70953;SDS011;58618;47.490;8.736;2023-11-22T12:13:10;3.97;;;2.47;;
70953;SDS011;58618;47.490;8.736;2023-11-22T12:15:58;6.23;;;2.70;;
70953;SDS011;58618;47.490;8.736;2023-11-22T12:18:47;4.28;;;2.55;;
70953;SDS011;58618;47.490;8.736;2023-11-22T12:21:37;3.85;;;2.35;;
70953;SDS011;58618;47.490;8.736;2023-11-22T12:24:24;5.20;;;2.45;;
70953;SDS011;58618;47.490;8.736;2023-11-22T12:27:13;4.65;;;2.65;;
70953;SDS011;58618;47.490;8.736;2023-11-22T12:30:00;3.87;;;2.40;;
70953;SDS011;58618;47.490;8.736;2023-11-22T12:32:48;4.53;;;2.65;;
70953;SDS011;58618;47.490;8.736;2023-11-22T12:35:36;4.97;;;2.60;;
70953;SDS011;58618;47.490;8.736;2023-11-22T12:38:25;5.47;;;3.10;;
70953;SDS011;58618;47.490;8.736;2023-11-22T12:41:15;4.25;;;2.85;;
70953;SDS011;58618;47.490;8.736;2023-11-22T12:44:04;6.07;;;3.00;;
70953;SDS011;58618;47.490;8.736;2023-11-22T12:46:52;3.95;;;2.55;;
70953;SDS011;58618;47.490;8.736;2023-11-22T12:49:43;5.00;;;2.88;;
70953;SDS011;58618;47.490;8.736;2023-11-22T12:52:33;5.35;;;3.17;;
70953;SDS011;58618;47.490;8.736;2023-11-22T12:55:21;5.95;;;3.67;;
70953;SDS011;58618;47.490;8.736;2023-11-22T12:58:08;5.47;;;3.33;;
70953;SDS011;58618;47.490;8.736;2023-11-22T13:00:56;5.95;;;3.80;;
70953;SDS011;58618;47.490;8.736;2023-11-22T13:03:49;5.85;;;3.30;;
70953;SDS011;58618;47.490;8.736;2023-11-22T13:06:36;6.53;;;3.35;;
70953;SDS011;58618;47.490;8.736;2023-11-22T13:09:25;6.13;;;3.25;;
70953;SDS011;58618;47.490;8.736;2023-11-22T13:12:12;7.33;;;3.20;;
70953;SDS011;58618;47.490;8.736;2023-11-22T13:15:00;5.65;;;3.17;;
70953;SDS011;58618;47.490;8.736;2023-11-22T13:17:48;5.82;;;3.40;;
70953;SDS011;58618;47.490;8.736;2023-11-22T13:20:35;4.60;;;3.08;;
70953;SDS011;58618;47.490;8.736;2023-11-22T13:23:24;5.68;;;3.45;;
70953;SDS011;58618;47.490;8.736;2023-11-22T13:26:13;6.90;;;3.93;;
70953;SDS011;58618;47.490;8.736;2023-11-22T13:29:01;7.30;;;4.10;;
70953;SDS011;58618;47.490;8.736;2023-11-22T13:31:48;6.25;;;3.25;;
70953;SDS011;58618;47.490;8.736;2023-11-22T13:34:36;5.47;;;2.83;;
70953;SDS011;58618;47.490;8.736;2023-11-22T13:37:24;5.28;;;3.25;;
70953;SDS011;58618;47.490;8.736;2023-11-22T13:40:13;5.87;;;3.30;;
70953;SDS011;58618;47.490;8.736;2023-11-22T13:43:03;4.25;;;2.58;;
70953;SDS011;58618;47.490;8.736;2023-11-22T13:45:50;5.57;;;3.13;;
70953;SDS011;58618;47.490;8.736;2023-11-22T13:48:38;7.13;;;3.40;;
70953;SDS011;58618;47.490;8.736;2023-11-22T13:51:27;6.93;;;3.60;;
70953;SDS011;58618;47.490;8.736;2023-11-22T13:54:14;6.30;;;3.50;;
70953;SDS011;58618;47.490;8.736;2023-11-22T13:57:03;5.15;;;3.30;;
70953;SDS011;58618;47.490;8.736;2023-11-22T13:59:52;6.03;;;3.58;;
70953;SDS011;58618;47.490;8.736;2023-11-22T14:02:39;6.07;;;3.47;;
70953;SDS011;58618;47.490;8.736;2023-11-22T14:05:27;5.68;;;3.40;;
70953;SDS011;58618;47.490;8.736;2023-11-22T14:08:15;7.00;;;3.53;;
70953;SDS011;58618;47.490;8.736;2023-11-22T14:11:02;4.90;;;3.08;;
70953;SDS011;58618;47.490;8.736;2023-11-22T14:13:50;5.78;;;3.50;;
70953;SDS011;58618;47.490;8.736;2023-11-22T14:16:38;5.68;;;3.47;;
70953;SDS011;58618;47.490;8.736;2023-11-22T14:19:30;6.07;;;3.85;;
70953;SDS011;58618;47.490;8.736;2023-11-22T14:22:17;6.57;;;3.60;;
70953;SDS011;58618;47.490;8.736;2023-11-22T14:25:07;6.60;;;3.80;;
70953;SDS011;58618;47.490;8.736;2023-11-22T14:27:57;5.85;;;3.38;;
70953;SDS011;58618;47.490;8.736;2023-11-22T14:30:45;6.18;;;3.40;;
70953;SDS011;58618;47.490;8.736;2023-11-22T14:33:33;6.38;;;3.83;;
70953;SDS011;58618;47.490;8.736;2023-11-22T14:36:21;5.90;;;3.43;;
70953;SDS011;58618;47.490;8.736;2023-11-22T14:39:08;6.72;;;3.63;;
70953;SDS011;58618;47.490;8.736;2023-11-22T14:41:58;7.70;;;3.90;;
70953;SDS011;58618;47.490;8.736;2023-11-22T14:44:46;4.95;;;3.17;;
70953;SDS011;58618;47.490;8.736;2023-11-22T14:47:34;7.57;;;3.33;;
70953;SDS011;58618;47.490;8.736;2023-11-22T14:50:24;7.03;;;3.70;;
70953;SDS011;58618;47.490;8.736;2023-11-22T14:53:13;6.45;;;3.97;;
70953;SDS011;58618;47.490;8.736;2023-11-22T14:56:01;7.00;;;4.20;;
70953;SDS011;58618;47.490;8.736;2023-11-22T14:58:49;6.38;;;3.95;;
70953;SDS011;58618;47.490;8.736;2023-11-22T15:01:39;8.30;;;4.50;;
70953;SDS011;58618;47.490;8.736;2023-11-22T15:04:27;8.27;;;3.90;;
70953;SDS011;58618;47.490;8.736;2023-11-22T15:07:16;5.97;;;3.47;;
70953;SDS011;58618;47.490;8.736;2023-11-22T15:10:04;6.75;;;3.63;;
70953;SDS011;58618;47.490;8.736;2023-11-22T15:12:52;7.28;;;3.67;;
70953;SDS011;58618;47.490;8.736;2023-11-22T15:15:39;6.95;;;4.15;;
70953;SDS011;58618;47.490;8.736;2023-11-22T15:18:27;11.17;;;3.80;;
70953;SDS011;58618;47.490;8.736;2023-11-22T15:21:16;7.28;;;4.30;;
70953;SDS011;58618;47.490;8.736;2023-11-22T15:24:05;7.50;;;4.90;;
70953;SDS011;58618;47.490;8.736;2023-11-22T15:26:53;7.72;;;4.53;;
70953;SDS011;58618;47.490;8.736;2023-11-22T15:29:42;9.93;;;5.05;;
70953;SDS011;58618;47.490;8.736;2023-11-22T15:32:29;8.83;;;4.57;;
70953;SDS011;58618;47.490;8.736;2023-11-22T15:35:17;11.73;;;5.82;;
70953;SDS011;58618;47.490;8.736;2023-11-22T15:38:04;10.32;;;5.85;;
70953;SDS011;58618;47.490;8.736;2023-11-22T15:40:53;10.60;;;6.50;;
70953;SDS011;58618;47.490;8.736;2023-11-22T15:43:41;11.60;;;5.72;;
70953;SDS011;58618;47.490;8.736;2023-11-22T15:46:29;10.03;;;5.87;;
70953;SDS011;58618;47.490;8.736;2023-11-22T15:49:16;10.00;;;5.85;;
70953;SDS011;58618;47.490;8.736;2023-11-22T15:52:04;9.70;;;5.63;;
70953;SDS011;58618;47.490;8.736;2023-11-22T15:54:52;11.57;;;5.40;;
70953;SDS011;58618;47.490;8.736;2023-11-22T15:57:40;9.82;;;5.68;;
70953;SDS011;58618;47.490;8.736;2023-11-22T16:00:28;11.17;;;5.90;;
70953;SDS011;58618;47.490;8.736;2023-11-22T16:03:16;9.90;;;6.20;;
70953;SDS011;58618;47.490;8.736;2023-11-22T16:06:04;10.80;;;5.85;;
70953;SDS011;58618;47.490;8.736;2023-11-22T16:08:53;10.32;;;5.95;;
70953;SDS011;58618;47.490;8.736;2023-11-22T16:11:42;11.30;;;6.63;;
70953;SDS011;58618;47.490;8.736;2023-11-22T16:14:30;13.03;;;6.00;;
70953;SDS011;58618;47.490;8.736;2023-11-22T16:17:18;11.07;;;6.10;;
70953;SDS011;58618;47.490;8.736;2023-11-22T16:20:06;11.02;;;6.28;;
70953;SDS011;58618;47.490;8.736;2023-11-22T16:22:56;9.55;;;5.97;;
70953;SDS011;58618;47.490;8.736;2023-11-22T16:25:44;10.13;;;5.63;;
70953;SDS011;58618;47.490;8.736;2023-11-22T16:28:31;10.80;;;6.13;;
70953;SDS011;58618;47.490;8.736;2023-11-22T16:31:20;10.30;;;5.72;;
70953;SDS011;58618;47.490;8.736;2023-11-22T16:34:08;12.13;;;6.88;;
70953;SDS011;58618;47.490;8.736;2023-11-22T16:36:55;10.98;;;6.32;;
70953;SDS011;58618;47.490;8.736;2023-11-22T16:39:43;12.93;;;6.63;;
70953;SDS011;58618;47.490;8.736;2023-11-22T16:42:31;11.13;;;6.17;;
70953;SDS011;58618;47.490;8.736;2023-11-22T16:45:20;13.07;;;6.25;;
70953;SDS011;58618;47.490;8.736;2023-11-22T16:48:10;13.05;;;7.45;;
70953;SDS011;58618;47.490;8.736;2023-11-22T16:50:57;12.05;;;7.10;;
70953;SDS011;58618;47.490;8.736;2023-11-22T16:53:45;10.50;;;5.22;;
70953;SDS011;58618;47.490;8.736;2023-11-22T16:56:32;10.20;;;5.77;;
70953;SDS011;58618;47.490;8.736;2023-11-22T16:59:20;10.52;;;6.22;;
70953;SDS011;58618;47.490;8.736;2023-11-22T17:02:09;9.15;;;5.43;;
70953;SDS011;58618;47.490;8.736;2023-11-22T17:04:59;10.27;;;5.90;;
70953;SDS011;58618;47.490;8.736;2023-11-22T17:07:46;9.73;;;5.18;;
70953;SDS011;58618;47.490;8.736;2023-11-22T17:10:34;11.17;;;5.90;;
70953;SDS011;58618;47.490;8.736;2023-11-22T17:13:22;10.00;;;5.40;;
70953;SDS011;58618;47.490;8.736;2023-11-22T17:16:10;12.52;;;6.18;;
70953;SDS011;58618;47.490;8.736;2023-11-22T17:18:57;12.60;;;7.50;;
70953;SDS011;58618;47.490;8.736;2023-11-22T17:21:47;36.17;;;15.75;;
70953;SDS011;58618;47.490;8.736;2023-11-22T17:24:35;26.23;;;9.17;;
70953;SDS011;58618;47.490;8.736;2023-11-22T17:27:24;23.55;;;12.23;;
70953;SDS011;58618;47.490;8.736;2023-11-22T17:30:14;13.25;;;6.45;;
70953;SDS011;58618;47.490;8.736;2023-11-22T17:35:37;10.30;;;6.05;;
70953;SDS011;58618;47.490;8.736;2023-11-22T17:38:26;11.47;;;6.43;;
70953;SDS011;58618;47.490;8.736;2023-11-22T17:41:14;13.25;;;7.20;;
70953;SDS011;58618;47.490;8.736;2023-11-22T17:44:02;13.25;;;5.97;;